Clover, Idaho
Current Conditions -  °F | °C
As of 1:53 AM on Saturday 29 Nov 2014 (Local Time) from KJER Reporting Station
Broken Clouds Broken Clouds  
Wind Chill: 43°   Ceiling: 12000
Heat Index: 48°   Visibility: 10mi
Dew Point: 16°   Wind: 12mph
Humidity: 28%   Direction: 190°S
Pressure: 29.64"   Gusts: NA
Location:  42.6472°N, 114.901°W
Report Text: KJER 290853Z AUTO 19010KT 10SM FEW070 SCT095 BKN120 09/M09 A2964 RMK AO2 SLP024 T00891089 58014
Loading
Personal Weather Stations






























Interactive Weather Map New forecast layout! Learn more

10-Day Weather Forecast

Advertisements
Track Severe Weather on mobile